Time;durP1;ratioP1;P1;durP2;ratioP2;P2;SDS_P1;SDS_P2;PMS_P1;PMS_P2;Temp;Humidity;BMP_temperature;BMP_pressure;BME280_temperature;BME280_humidity;BME280_pressure;Samples;Min_cycle;Max_cycle;Signal;HPM_P1;HPM_P2
2020/12/06 00:01:49;;;;;;;27.35;16.45;;;1.30;91.70;;;;;;4961735;28;20042;-83
2020/12/06 00:04:19;;;;;;;29.13;16.80;;;1.30;91.60;;;;;;4925330;28;20045;-83
2020/12/06 00:06:46;;;;;;;31.00;17.65;;;1.30;91.40;;;;;;4934843;28;20035;-83
2020/12/06 00:09:11;;;;;;;27.92;18.38;;;1.10;91.70;;;;;;4960426;28;20042;-83
2020/12/06 00:11:37;;;;;;;30.75;17.55;;;1.10;91.70;;;;;;4918285;28;20395;-82
2020/12/06 00:14:02;;;;;;;26.55;17.50;;;1.00;91.80;;;;;;4928144;28;20415;-82
2020/12/06 00:16:28;;;;;;;28.30;17.98;;;0.90;91.60;;;;;;4925549;28;20027;-83
2020/12/06 00:18:53;;;;;;;27.30;17.08;;;1.00;91.90;;;;;;4964806;28;20038;-82
2020/12/06 00:21:20;;;;;;;25.45;16.38;;;0.90;91.60;;;;;;4932294;28;20027;-82
2020/12/06 00:23:46;;;;;;;27.58;17.33;;;0.80;91.80;;;;;;4951595;28;20026;-82
2020/12/06 00:26:11;;;;;;;30.25;17.20;;;0.90;92.00;;;;;;4947627;28;20085;-82
2020/12/06 00:28:37;;;;;;;25.17;16.25;;;0.90;92.00;;;;;;4920271;28;20576;-82
2020/12/06 00:31:03;;;;;;;25.42;14.05;;;1.00;92.10;;;;;;4919750;28;20026;-82
2020/12/06 00:33:28;;;;;;;27.10;16.40;;;0.90;91.60;;;;;;4915639;28;20031;-82
2020/12/06 00:35:54;;;;;;;27.52;16.65;;;0.90;91.70;;;;;;4944085;28;20047;-83
2020/12/06 00:38:20;;;;;;;28.58;17.13;;;0.80;91.50;;;;;;4948770;28;20547;-83
2020/12/06 00:40:45;;;;;;;25.33;17.23;;;0.80;91.70;;;;;;4944696;28;20026;-82
2020/12/06 00:43:11;;;;;;;24.45;17.42;;;0.70;91.50;;;;;;4917862;28;20537;-82
2020/12/06 00:45:36;;;;;;;28.30;17.85;;;0.70;91.90;;;;;;4934901;28;20085;-82
2020/12/06 00:48:02;;;;;;;26.08;16.00;;;0.70;92.00;;;;;;4916382;28;20046;-82
2020/12/06 00:50:27;;;;;;;26.95;16.38;;;0.80;92.00;;;;;;4933975;28;20030;-82
2020/12/06 00:52:53;;;;;;;26.85;16.50;;;0.90;92.00;;;;;;4938362;28;20443;-81
2020/12/06 00:55:18;;;;;;;30.48;18.98;;;1.00;91.50;;;;;;4956542;28;20502;-83
2020/12/06 00:57:44;;;;;;;33.40;18.00;;;0.90;91.40;;;;;;4932505;28;20605;-84
2020/12/06 01:00:10;;;;;;;27.45;17.15;;;1.00;91.80;;;;;;4931112;28;20042;-83
2020/12/06 01:02:35;;;;;;;29.30;16.38;;;0.90;91.50;;;;;;4919773;28;20077;-83
2020/12/06 01:05:01;;;;;;;26.60;16.17;;;0.80;91.60;;;;;;4934507;28;20082;-83
2020/12/06 01:07:27;;;;;;;28.55;17.40;;;0.70;91.90;;;;;;4930522;28;20039;-83
2020/12/06 01:09:52;;;;;;;30.05;17.45;;;0.90;91.90;;;;;;4938482;28;20526;-83
2020/12/06 01:12:18;;;;;;;28.27;17.38;;;0.90;91.90;;;;;;4919561;28;20097;-83
2020/12/06 01:14:43;;;;;;;28.75;17.77;;;1.00;91.70;;;;;;4960088;28;20031;-83
2020/12/06 01:17:09;;;;;;;28.45;17.02;;;1.00;91.60;;;;;;4932251;28;20082;-83
2020/12/06 01:19:34;;;;;;;26.95;16.92;;;1.00;91.60;;;;;;4933730;28;20030;-83
2020/12/06 01:22:00;;;;;;;26.98;16.63;;;1.00;91.60;;;;;;4941994;28;20037;-83
2020/12/06 01:24:25;;;;;;;25.88;16.48;;;0.80;91.40;;;;;;4932380;28;20117;-83
2020/12/06 01:26:51;;;;;;;26.63;17.27;;;0.70;91.80;;;;;;4940726;28;20129;-82
2020/12/06 01:29:16;;;;;;;26.83;16.20;;;0.70;91.90;;;;;;4929383;28;20039;-82
2020/12/06 01:31:46;;;;;;;24.92;17.05;;;0.60;92.10;;;;;;4909372;28;20042;-82
2020/12/06 01:34:11;;;;;;;26.95;16.42;;;0.70;92.10;;;;;;4914866;28;20078;-82
2020/12/06 01:36:37;;;;;;;26.98;16.55;;;0.70;92.10;;;;;;4947171;28;20039;-82
2020/12/06 01:39:02;;;;;;;26.67;15.95;;;0.80;92.10;;;;;;4924157;28;20495;-82
2020/12/06 01:41:28;;;;;;;27.90;16.95;;;0.90;92.00;;;;;;4960569;28;20031;-82
2020/12/06 01:43:55;;;;;;;30.80;17.00;;;0.80;92.00;;;;;;4958465;28;20109;-81
2020/12/06 01:46:20;;;;;;;28.60;16.45;;;1.00;92.20;;;;;;4956535;28;20506;-82
2020/12/06 01:48:46;;;;;;;27.52;16.75;;;1.00;91.80;;;;;;4927805;28;20051;-82
2020/12/06 01:51:11;;;;;;;28.35;16.70;;;0.90;91.90;;;;;;4916514;28;20030;-83
2020/12/06 01:53:37;;;;;;;32.85;17.85;;;0.90;92.00;;;;;;4918406;28;20026;-83
2020/12/06 01:56:02;;;;;;;29.15;16.80;;;0.80;92.10;;;;;;4935365;28;20031;-82
2020/12/06 01:58:28;;;;;;;32.65;18.35;;;0.70;92.20;;;;;;4914782;28;20498;-82
2020/12/06 02:00:53;;;;;;;32.90;19.10;;;0.70;92.30;;;;;;4913239;28;20114;-82
2020/12/06 02:03:19;;;;;;;32.97;19.38;;;0.60;92.00;;;;;;4932253;28;20054;-81
2020/12/06 02:05:44;;;;;;;33.97;19.17;;;0.70;92.40;;;;;;4941447;28;20027;-81
2020/12/06 02:08:10;;;;;;;32.17;18.90;;;0.80;92.30;;;;;;4957618;28;20047;-82
2020/12/06 02:10:35;;;;;;;27.90;16.63;;;0.90;92.10;;;;;;4919894;28;20390;-82
2020/12/06 02:13:01;;;;;;;28.75;15.98;;;1.00;91.80;;;;;;4937467;28;20038;-82
2020/12/06 02:15:26;;;;;;;30.58;16.02;;;1.10;91.50;;;;;;4935163;28;20505;-82
2020/12/06 02:17:52;;;;;;;25.98;15.68;;;1.10;91.40;;;;;;4945186;28;20042;-81
2020/12/06 02:20:19;;;;;;;25.20;14.90;;;1.00;91.20;;;;;;4956881;28;20438;-82
2020/12/06 02:22:44;;;;;;;24.33;15.75;;;1.10;91.10;;;;;;4951035;28;20030;-82
2020/12/06 02:25:10;;;;;;;23.67;14.15;;;1.10;90.90;;;;;;4922837;28;20042;-81
2020/12/06 02:27:35;;;;;;;29.92;17.30;;;1.10;90.90;;;;;;4957739;28;20065;-82
2020/12/06 02:30:01;;;;;;;27.85;17.33;;;1.00;91.00;;;;;;4912428;28;20027;-82
2020/12/06 02:32:26;;;;;;;26.38;16.70;;;0.80;91.30;;;;;;4958679;28;20047;-82
2020/12/06 02:34:52;;;;;;;25.85;16.10;;;0.80;91.50;;;;;;4941046;28;20497;-82
2020/12/06 02:37:17;;;;;;;26.23;16.58;;;0.70;91.50;;;;;;4935450;28;20130;-82
2020/12/06 02:39:43;;;;;;;28.20;16.13;;;0.60;91.80;;;;;;4943303;28;20034;-82
2020/12/06 02:42:09;;;;;;;24.85;15.98;;;0.50;91.70;;;;;;4952965;28;20403;-82
2020/12/06 02:44:34;;;;;;;30.00;16.75;;;0.70;92.10;;;;;;4913888;28;20027;-82
2020/12/06 02:47:00;;;;;;;28.17;15.10;;;0.50;91.60;;;;;;4920076;28;20042;-82
2020/12/06 02:49:26;;;;;;;26.48;16.13;;;0.60;92.10;;;;;;4936738;28;20042;-82
2020/12/06 02:51:52;;;;;;;30.40;17.40;;;0.70;92.20;;;;;;4956788;28;20390;-82
2020/12/06 02:54:17;;;;;;;27.55;16.92;;;0.80;91.90;;;;;;4937542;28;20035;-81
2020/12/06 02:56:43;;;;;;;25.92;16.23;;;0.80;91.80;;;;;;4942392;28;20030;-82
2020/12/06 02:59:11;;;;;;;26.83;15.98;;;0.70;91.50;;;;;;4914232;28;20462;-82
2020/12/06 03:01:36;;;;;;;26.38;16.15;;;0.60;91.60;;;;;;4932737;28;21389;-82
2020/12/06 03:04:02;;;;;;;28.23;15.95;;;0.70;91.90;;;;;;4913272;28;20471;-82
2020/12/06 03:06:27;;;;;;;24.80;16.48;;;0.70;91.80;;;;;;4954813;28;20047;-82
2020/12/06 03:08:53;;;;;;;29.38;15.98;;;0.50;91.70;;;;;;4941398;28;20099;-82
2020/12/06 03:11:20;;;;;;;26.10;16.92;;;0.50;92.00;;;;;;4953657;28;20050;-81
2020/12/06 03:13:45;;;;;;;28.02;17.15;;;0.70;92.40;;;;;;4957154;28;20031;-81
2020/12/06 03:16:11;;;;;;;22.10;14.10;;;0.60;92.00;;;;;;4913670;28;20035;-81
2020/12/06 03:18:36;;;;;;;23.13;13.90;;;0.80;92.10;;;;;;4956416;28;20049;-81
2020/12/06 03:21:02;;;;;;;32.88;18.00;;;0.90;91.80;;;;;;4927375;28;20027;-80
2020/12/06 03:23:28;;;;;;;29.58;17.15;;;0.90;91.60;;;;;;4929813;28;20053;-81
2020/12/06 03:25:53;;;;;;;27.08;16.80;;;0.90;91.70;;;;;;4940968;28;20046;-81
2020/12/06 03:28:19;;;;;;;28.52;17.80;;;0.70;91.80;;;;;;4929473;28;20455;-80
2020/12/06 03:30:44;;;;;;;30.65;17.52;;;0.80;92.30;;;;;;4942826;28;20034;-81
2020/12/06 03:33:10;;;;;;;28.20;16.70;;;0.60;92.20;;;;;;4915665;28;20395;-81
2020/12/06 03:35:35;;;;;;;34.28;18.85;;;0.70;92.40;;;;;;4926386;28;20467;-82
2020/12/06 03:38:01;;;;;;;32.85;19.55;;;0.80;92.50;;;;;;4930438;28;20478;-81
2020/12/06 03:40:26;;;;;;;32.80;18.17;;;0.70;92.20;;;;;;4932035;28;20094;-81
2020/12/06 03:42:52;;;;;;;31.85;19.10;;;0.80;92.80;;;;;;4942801;28;20031;-81
2020/12/06 03:45:18;;;;;;;36.55;19.20;;;0.80;92.20;;;;;;4921607;28;20046;-81
2020/12/06 03:47:44;;;;;;;36.72;20.90;;;0.90;92.60;;;;;;4956623;28;20040;-81
2020/12/06 03:50:09;;;;;;;30.48;18.98;;;0.90;92.60;;;;;;4916975;28;20039;-81
2020/12/06 03:52:35;;;;;;;31.98;19.17;;;0.90;92.80;;;;;;4918528;28;20042;-81
2020/12/06 03:55:00;;;;;;;35.10;20.60;;;1.00;92.60;;;;;;4942722;28;20045;-81
2020/12/06 03:57:26;;;;;;;37.92;18.80;;;0.90;92.60;;;;;;4934765;28;20709;-81
2020/12/06 03:59:51;;;;;;;34.15;18.90;;;1.00;92.70;;;;;;4944121;28;20044;-81
2020/12/06 04:02:17;;;;;;;34.47;18.77;;;1.10;92.70;;;;;;4931782;28;20049;-82
2020/12/06 04:04:43;;;;;;;30.52;18.75;;;1.10;92.50;;;;;;4948412;28;20153;-83
2020/12/06 04:07:09;;;;;;;33.67;18.98;;;1.10;92.50;;;;;;4932519;28;20038;-82
2020/12/06 04:09:34;;;;;;;33.40;17.80;;;1.00;92.10;;;;;;4918358;28;20039;-83
2020/12/06 04:12:00;;;;;;;35.17;18.95;;;1.00;92.30;;;;;;4917995;28;20058;-83
2020/12/06 04:14:25;;;;;;;37.05;20.35;;;0.90;92.30;;;;;;4955781;28;20495;-82
2020/12/06 04:16:51;;;;;;;23.65;13.45;;;1.00;92.50;;;;;;4957620;28;20037;-82
2020/12/06 04:19:16;;;;;;;37.47;20.17;;;1.10;92.60;;;;;;4932237;28;20073;-82
2020/12/06 04:21:42;;;;;;;40.60;20.17;;;1.10;92.50;;;;;;4914710;28;20031;-83
2020/12/06 04:24:07;;;;;;;38.22;20.48;;;1.20;92.60;;;;;;4929269;28;20467;-82
2020/12/06 04:26:33;;;;;;;37.45;22.02;;;1.10;92.40;;;;;;4918486;28;20039;-83
2020/12/06 04:28:58;;;;;;;34.95;20.90;;;1.10;92.30;;;;;;4940729;28;20035;-82
2020/12/06 04:31:24;;;;;;;34.00;19.20;;;1.10;92.50;;;;;;4955241;28;20106;-82
2020/12/06 04:33:50;;;;;;;38.58;22.10;;;1.10;92.40;;;;;;4943335;28;20031;-82
2020/12/06 04:36:15;;;;;;;39.05;21.85;;;1.10;92.20;;;;;;4950458;28;20113;-82
2020/12/06 04:38:41;;;;;;;38.35;22.08;;;1.10;92.20;;;;;;4914239;28;20314;-82
2020/12/06 04:41:06;;;;;;;36.75;21.20;;;1.10;92.50;;;;;;4931271;28;20038;-83
2020/12/06 04:43:32;;;;;;;38.70;22.42;;;1.10;92.40;;;;;;4918976;28;20038;-82
2020/12/06 04:45:57;;;;;;;38.58;22.08;;;1.10;92.50;;;;;;4942218;28;20039;-83
2020/12/06 04:49:03;;;;;;;36.60;21.70;;;1.10;92.50;;;;;;4931873;28;20657;-82
2020/12/06 04:51:31;;;;;;;40.70;22.33;;;1.10;92.70;;;;;;4952287;28;20493;-82
2020/12/06 04:54:01;;;;;;;37.13;22.00;;;1.10;92.60;;;;;;4954312;28;20042;-82
2020/12/06 04:56:28;;;;;;;36.67;22.13;;;1.20;92.50;;;;;;4932671;28;20034;-83
2020/12/06 04:58:53;;;;;;;38.17;22.20;;;1.20;92.40;;;;;;4959378;28;20068;-82
2020/12/06 05:01:19;;;;;;;41.83;21.58;;;1.10;92.30;;;;;;4934233;28;20051;-82
2020/12/06 05:03:44;;;;;;;35.65;19.50;;;1.10;92.50;;;;;;4915815;28;20156;-82
2020/12/06 05:06:13;;;;;;;24.17;13.82;;;1.20;92.50;;;;;;4913942;28;20035;-82
2020/12/06 05:08:38;;;;;;;35.78;20.30;;;1.30;92.40;;;;;;4920148;28;20145;-82
2020/12/06 05:11:04;;;;;;;30.90;16.42;;;1.30;92.20;;;;;;4912891;28;20550;-82
2020/12/06 05:13:29;;;;;;;28.85;17.58;;;1.40;92.10;;;;;;4916673;28;20105;-82
2020/12/06 05:15:55;;;;;;;35.85;20.58;;;1.50;91.90;;;;;;4939768;28;20038;-82
2020/12/06 05:18:23;;;;;;;35.90;21.60;;;1.40;91.90;;;;;;4926452;28;20137;-81
2020/12/06 05:20:48;;;;;;;44.72;23.45;;;1.30;92.10;;;;;;4943715;28;20035;-82
2020/12/06 05:23:15;;;;;;;43.38;21.75;;;1.30;92.50;;;;;;4954922;28;20038;-82
2020/12/06 05:25:41;;;;;;;42.22;23.45;;;1.20;92.80;;;;;;4935012;28;20030;-83
2020/12/06 05:28:07;;;;;;;38.80;21.45;;;1.30;92.60;;;;;;4928243;28;20041;-82
2020/12/06 05:30:33;;;;;;;42.60;23.88;;;1.30;92.50;;;;;;4915327;28;20113;-83
2020/12/06 05:32:58;;;;;;;42.45;26.35;;;1.30;92.40;;;;;;4959855;28;20121;-82
2020/12/06 05:35:24;;;;;;;42.15;26.40;;;1.30;92.60;;;;;;4927620;28;20122;-82
2020/12/06 05:37:50;;;;;;;47.92;27.50;;;1.40;92.50;;;;;;4962402;28;20132;-82
2020/12/06 05:40:18;;;;;;;55.22;29.92;;;1.50;92.30;;;;;;4948271;28;20091;-82
2020/12/06 05:42:44;;;;;;;58.65;36.20;;;1.40;92.50;;;;;;4934846;28;20101;-82
2020/12/06 05:45:10;;;;;;;57.70;36.28;;;1.40;92.40;;;;;;4914547;28;20241;-82
2020/12/06 05:47:36;;;;;;;58.85;35.58;;;1.30;92.40;;;;;;4917738;28;20042;-82
2020/12/06 05:50:02;;;;;;;62.92;38.60;;;1.40;92.60;;;;;;4940255;28;20058;-82
2020/12/06 05:52:29;;;;;;;64.70;40.25;;;1.40;92.70;;;;;;4956755;28;20391;-82
2020/12/06 05:54:58;;;;;;;68.95;42.00;;;1.40;92.60;;;;;;4943867;28;20034;-82
2020/12/06 05:57:28;;;;;;;60.22;37.70;;;1.40;92.60;;;;;;4928599;28;20061;-82
2020/12/06 06:00:00;;;;;;;63.97;37.85;;;1.40;92.60;;;;;;4939106;28;20121;-82
2020/12/06 06:02:26;;;;;;;55.05;33.60;;;1.40;92.70;;;;;;4957805;28;20031;-82
2020/12/06 06:04:52;;;;;;;38.72;23.20;;;1.50;92.60;;;;;;4959180;28;20039;-82
2020/12/06 06:07:21;;;;;;;48.53;27.02;;;1.50;92.40;;;;;;4912924;28;20069;-82
2020/12/06 06:09:57;;;;;;;32.67;18.30;;;1.60;92.10;;;;;;4911791;28;20035;-82
2020/12/06 06:12:26;;;;;;;;;;;1.60;92.00;;;;;;4929705;28;20026;-82
2020/12/06 06:14:52;;;;;;;42.38;24.98;;;1.60;91.90;;;;;;4958122;28;19956;-82
2020/12/06 06:17:18;;;;;;;39.92;24.55;;;1.60;92.00;;;;;;4945853;28;20043;-82
2020/12/06 06:19:47;;;;;;;49.20;25.08;;;1.60;92.10;;;;;;4928583;28;20380;-82
2020/12/06 06:22:13;;;;;;;46.08;25.92;;;1.50;92.20;;;;;;4920073;28;20030;-81
2020/12/06 06:24:38;;;;;;;42.88;24.98;;;1.50;92.40;;;;;;4932205;28;20034;-82
2020/12/06 06:27:04;;;;;;;40.67;23.80;;;1.40;92.60;;;;;;4914826;28;20042;-81
2020/12/06 06:29:29;;;;;;;46.00;24.40;;;1.40;92.60;;;;;;4933342;28;20059;-81
2020/12/06 06:31:55;;;;;;;39.58;23.25;;;1.50;93.00;;;;;;4937306;28;20090;-83
2020/12/06 06:34:29;;;;;;;32.08;19.60;;;1.50;92.40;;;;;;4925077;28;20554;-81
2020/12/06 06:36:55;;;;;;;45.20;23.65;;;1.60;92.30;;;;;;4941449;28;20046;-81
2020/12/06 06:39:22;;;;;;;33.17;20.23;;;1.60;92.20;;;;;;4956848;28;20053;-81
2020/12/06 06:42:14;;;;;;;36.88;22.27;;;1.50;92.30;;;;;;4942603;28;20039;-82
2020/12/06 06:44:43;;;;;;;38.78;20.35;;;1.50;92.30;;;;;;4937089;28;20034;-81
2020/12/06 06:47:10;;;;;;;36.53;21.58;;;1.60;92.40;;;;;;4926703;28;20043;-81
2020/12/06 06:49:49;;;;;;;40.85;20.92;;;1.50;92.40;;;;;;4918239;28;20058;-82
2020/12/06 06:52:16;;;;;;;37.08;20.92;;;1.60;92.40;;;;;;4954151;28;20105;-82
2020/12/06 06:54:41;;;;;;;39.83;21.38;;;1.60;92.40;;;;;;4933038;28;20034;-81
2020/12/06 06:57:07;;;;;;;35.60;20.83;;;1.60;92.50;;;;;;4929963;28;20191;-82
2020/12/06 06:59:53;;;;;;;44.95;23.67;;;1.60;92.50;;;;;;4915887;28;20125;-81
2020/12/06 07:02:19;;;;;;;46.35;25.23;;;1.60;92.30;;;;;;4953398;28;20034;-82
2020/12/06 07:04:46;;;;;;;44.17;25.88;;;1.60;92.60;;;;;;4957186;28;20056;-82
2020/12/06 07:07:12;;;;;;;43.13;23.25;;;1.50;92.70;;;;;;4931836;28;20043;-81
2020/12/06 07:09:37;;;;;;;41.97;23.73;;;1.50;92.60;;;;;;4936537;28;20513;-82
2020/12/06 07:12:03;;;;;;;44.70;25.05;;;1.50;92.70;;;;;;4935296;28;20418;-82
2020/12/06 07:14:28;;;;;;;46.28;24.38;;;1.50;92.90;;;;;;4934757;28;20394;-82
2020/12/06 07:16:58;;;;;;;43.50;23.63;;;1.50;92.70;;;;;;4946722;28;20037;-82
2020/12/06 07:19:24;;;;;;;43.97;22.75;;;1.50;92.60;;;;;;4933650;28;20035;-82
2020/12/06 07:21:50;;;;;;;47.03;25.98;;;1.40;92.70;;;;;;4944343;28;20466;-82
2020/12/06 07:24:16;;;;;;;50.95;27.95;;;1.60;92.70;;;;;;4932535;28;20487;-81
2020/12/06 07:26:42;;;;;;;48.92;25.30;;;1.50;92.50;;;;;;4932266;28;20042;-81
2020/12/06 07:29:07;;;;;;;52.25;26.23;;;1.50;92.60;;;;;;4916854;28;20064;-82
2020/12/06 07:31:33;;;;;;;47.60;25.00;;;1.60;92.60;;;;;;4961837;28;20070;-82
2020/12/06 07:34:00;;;;;;;49.17;26.40;;;1.50;92.80;;;;;;4957782;28;20049;-82
2020/12/06 07:36:37;;;;;;;50.05;26.73;;;1.50;92.60;;;;;;4950975;28;20570;-82
2020/12/06 07:39:14;;;;;;;39.70;21.35;;;1.50;92.80;;;;;;4948722;28;20039;-82
2020/12/06 07:41:46;;;;;;;47.75;25.90;;;1.50;92.80;;;;;;4918451;28;20036;-82
2020/12/06 07:44:12;;;;;;;44.80;25.90;;;1.60;92.70;;;;;;4964713;28;20101;-81
2020/12/06 07:46:38;;;;;;;52.53;28.02;;;1.60;92.50;;;;;;4917182;28;20031;-82
2020/12/06 07:49:03;;;;;;;55.50;28.27;;;1.50;92.70;;;;;;4937298;28;20054;-82
2020/12/06 07:51:29;;;;;;;47.70;26.23;;;1.60;92.90;;;;;;4930849;28;20023;-81
2020/12/06 07:53:56;;;;;;;52.55;27.23;;;1.60;92.80;;;;;;4946501;28;20033;-80
2020/12/06 07:56:24;;;;;;;56.22;29.08;;;1.60;92.80;;;;;;4961568;28;20376;-81
2020/12/06 07:59:14;;;;;;;55.33;28.83;;;1.60;92.80;;;;;;4962842;28;20030;-82
2020/12/06 08:01:41;;;;;;;55.03;30.98;;;1.70;92.70;;;;;;4946583;28;24621;-82
2020/12/06 08:04:06;;;;;;;53.67;27.75;;;1.70;92.70;;;;;;4950835;28;20308;-81
2020/12/06 08:06:32;;;;;;;60.35;30.45;;;1.60;92.90;;;;;;4919164;28;20015;-82
2020/12/06 08:09:00;;;;;;;56.25;26.98;;;1.70;92.80;;;;;;4960840;28;20094;-82
2020/12/06 08:11:35;;;;;;;55.28;28.75;;;1.70;93.00;;;;;;4929962;28;20031;-81
2020/12/06 08:14:00;;;;;;;62.93;28.93;;;1.70;92.90;;;;;;4921784;28;20061;-81
2020/12/06 08:16:26;;;;;;;64.63;29.95;;;1.70;93.00;;;;;;4937406;28;20058;-82
2020/12/06 08:19:02;;;;;;;57.97;30.65;;;1.80;93.00;;;;;;4917983;28;20035;-82
2020/12/06 08:21:42;;;;;;;58.75;28.35;;;1.80;93.00;;;;;;4925934;28;20046;-82
2020/12/06 08:24:20;;;;;;;57.92;30.33;;;1.80;93.00;;;;;;4973666;28;20053;-82
2020/12/06 08:26:46;;;;;;;54.72;28.30;;;1.90;93.00;;;;;;4947064;28;20034;-83
2020/12/06 08:29:13;;;;;;;54.20;28.23;;;2.00;92.90;;;;;;4964173;28;20031;-82
2020/12/06 08:31:38;;;;;;;46.20;23.88;;;2.00;92.90;;;;;;4961289;28;20043;-82
2020/12/06 08:34:11;;;;;;;45.15;23.40;;;2.00;93.00;;;;;;4935167;28;20117;-82
2020/12/06 08:36:37;;;;;;;53.70;28.73;;;2.10;93.10;;;;;;4919345;28;20093;-82
2020/12/06 08:39:23;;;;;;;59.78;29.75;;;2.20;92.90;;;;;;4944541;28;20035;-82
2020/12/06 08:41:49;;;;;;;55.53;29.05;;;2.20;92.90;;;;;;4941441;28;20458;-82
2020/12/06 08:44:15;;;;;;;53.88;29.85;;;2.20;93.10;;;;;;4943063;28;20030;-83
2020/12/06 08:46:50;;;;;;;55.58;28.90;;;2.20;93.20;;;;;;4936450;28;20032;-82
2020/12/06 08:49:18;;;;;;;54.85;27.65;;;2.20;93.20;;;;;;4950558;28;20049;-83
2020/12/06 08:51:52;;;;;;;58.33;31.73;;;2.30;93.20;;;;;;4916910;28;20119;-82
2020/12/06 08:54:35;;;;;;;61.33;30.77;;;2.30;93.20;;;;;;4941033;28;20027;-82
2020/12/06 08:57:09;;;;;;;55.40;29.83;;;2.40;93.30;;;;;;4962277;28;20554;-82
2020/12/06 08:59:39;;;;;;;55.55;30.17;;;2.40;93.40;;;;;;4933519;28;20031;-82
2020/12/06 09:02:05;;;;;;;57.28;30.10;;;2.40;93.20;;;;;;4933990;28;20064;-82
2020/12/06 09:04:32;;;;;;;58.58;32.05;;;2.40;93.20;;;;;;4933294;28;20027;-82
2020/12/06 09:06:57;;;;;;;54.22;29.52;;;2.50;93.40;;;;;;4959942;28;20092;-82
2020/12/06 09:09:23;;;;;;;58.85;31.40;;;2.50;93.40;;;;;;4946928;28;20034;-82
2020/12/06 09:11:52;;;;;;;58.35;31.17;;;2.60;93.50;;;;;;4948960;28;20038;-83
2020/12/06 09:14:18;;;;;;;58.22;29.80;;;2.60;93.80;;;;;;4959441;28;20490;-82
2020/12/06 09:16:43;;;;;;;58.78;30.17;;;2.70;93.60;;;;;;4960545;28;20045;-83
2020/12/06 09:19:09;;;;;;;59.80;31.38;;;2.70;93.60;;;;;;4935735;28;20554;-82
2020/12/06 09:21:34;;;;;;;59.90;31.58;;;2.80;93.70;;;;;;4932773;28;20502;-82
2020/12/06 09:24:00;;;;;;;61.00;30.55;;;2.80;93.60;;;;;;4913781;28;20509;-82
2020/12/06 09:26:25;;;;;;;57.65;30.98;;;2.90;93.70;;;;;;4963347;28;20479;-82
2020/12/06 09:28:51;;;;;;;62.63;31.50;;;2.90;93.70;;;;;;4963032;28;20128;-80
2020/12/06 09:31:20;;;;;;;61.72;30.92;;;2.90;93.60;;;;;;4947542;28;20445;-80
2020/12/06 09:33:46;;;;;;;59.25;30.83;;;3.00;94.00;;;;;;4942559;28;20122;-79
2020/12/06 09:36:11;;;;;;;56.83;31.55;;;3.00;93.80;;;;;;4913512;28;20410;-81
2020/12/06 09:38:37;;;;;;;65.95;34.25;;;3.10;93.80;;;;;;4952350;28;20149;-82
2020/12/06 09:41:02;;;;;;;61.38;31.70;;;3.10;94.00;;;;;;4940807;28;20115;-82
2020/12/06 09:43:28;;;;;;;63.97;32.88;;;3.20;93.90;;;;;;4958644;28;20070;-84
2020/12/06 09:45:53;;;;;;;55.92;31.73;;;3.20;93.80;;;;;;4946928;28;20034;-82
2020/12/06 09:48:19;;;;;;;60.10;31.45;;;3.30;93.90;;;;;;4930735;28;20038;-84
2020/12/06 09:50:44;;;;;;;54.50;28.13;;;3.30;94.00;;;;;;4943579;28;20042;-84
2020/12/06 09:53:10;;;;;;;55.65;30.92;;;3.40;94.00;;;;;;4945978;28;20035;-84
2020/12/06 09:55:36;;;;;;;56.85;31.52;;;3.40;94.00;;;;;;4935560;28;20058;-83
2020/12/06 09:58:01;;;;;;;52.90;30.60;;;3.40;93.70;;;;;;4947431;28;20031;-84
2020/12/06 10:00:27;;;;;;;56.78;30.83;;;3.50;93.70;;;;;;4930560;28;20399;-83
2020/12/06 10:02:53;;;;;;;59.00;30.25;;;3.50;93.70;;;;;;4915655;28;20118;-84
2020/12/06 10:05:18;;;;;;;56.50;28.27;;;3.60;94.00;;;;;;4944176;28;20042;-84
2020/12/06 10:07:44;;;;;;;55.65;29.40;;;3.60;93.80;;;;;;4943049;28;20042;-84
2020/12/06 10:10:09;;;;;;;51.42;30.08;;;3.60;93.60;;;;;;4911886;28;20050;-84
2020/12/06 10:12:35;;;;;;;53.70;28.55;;;3.70;93.90;;;;;;4922059;28;20070;-83
2020/12/06 10:15:01;;;;;;;52.28;29.85;;;3.70;93.80;;;;;;4944013;28;20490;-84
2020/12/06 10:17:26;;;;;;;53.50;29.65;;;3.70;93.70;;;;;;4943393;28;20523;-83
2020/12/06 10:19:52;;;;;;;48.58;28.88;;;3.80;94.00;;;;;;4943878;28;20046;-83
2020/12/06 10:22:17;;;;;;;50.55;29.77;;;3.80;94.00;;;;;;4942271;28;20138;-82
2020/12/06 10:24:43;;;;;;;48.63;28.02;;;3.80;94.00;;;;;;4943058;28;20042;-83
2020/12/06 10:27:08;;;;;;;50.70;29.77;;;3.80;94.00;;;;;;4914479;28;20042;-83
2020/12/06 10:29:34;;;;;;;49.75;28.23;;;3.90;93.90;;;;;;4918650;28;20054;-83
2020/12/06 10:32:00;;;;;;;55.47;30.33;;;3.90;93.90;;;;;;4940458;28;20033;-83
2020/12/06 10:34:26;;;;;;;48.90;31.10;;;3.90;94.00;;;;;;4961287;28;20031;-83
2020/12/06 10:36:56;;;;;;;52.45;31.27;;;3.90;94.10;;;;;;4945312;28;20046;-83
2020/12/06 10:39:22;;;;;;;49.75;28.08;;;3.90;94.10;;;;;;4947625;28;20112;-83
2020/12/06 10:41:48;;;;;;;47.28;28.08;;;3.90;94.20;;;;;;4954803;28;20049;-84
2020/12/06 10:44:14;;;;;;;46.97;27.73;;;4.00;94.20;;;;;;4941129;28;20062;-83
2020/12/06 10:46:39;;;;;;;49.03;27.70;;;4.00;94.20;;;;;;4922950;28;20104;-83
2020/12/06 10:49:05;;;;;;;49.80;28.83;;;4.00;94.20;;;;;;4921533;28;20067;-83
2020/12/06 10:51:30;;;;;;;47.28;28.00;;;4.00;94.10;;;;;;4922123;28;20056;-83
2020/12/06 10:53:56;;;;;;;45.45;26.92;;;4.00;94.00;;;;;;4949279;28;20027;-83
2020/12/06 10:56:21;;;;;;;52.28;29.33;;;4.10;93.90;;;;;;4938536;28;20478;-83
2020/12/06 10:58:48;;;;;;;48.03;27.20;;;4.10;93.90;;;;;;4936152;28;20493;-82
2020/12/06 11:01:14;;;;;;;55.70;30.40;;;4.10;93.80;;;;;;4952023;28;20035;-83
2020/12/06 11:03:39;;;;;;;54.90;30.23;;;4.10;93.80;;;;;;4923185;28;20106;-84
2020/12/06 11:06:05;;;;;;;67.78;36.90;;;4.10;93.70;;;;;;4924627;28;20026;-83
2020/12/06 11:08:30;;;;;;;61.35;35.90;;;4.20;94.10;;;;;;4969364;28;20418;-83
2020/12/06 11:10:56;;;;;;;61.00;33.70;;;4.20;94.20;;;;;;4954838;28;20038;-81
2020/12/06 11:13:21;;;;;;;65.90;33.60;;;4.10;94.20;;;;;;4945676;28;20767;-83
2020/12/06 11:15:47;;;;;;;63.40;34.17;;;4.20;94.10;;;;;;4951791;28;20038;-83
2020/12/06 11:18:12;;;;;;;61.47;34.58;;;4.20;93.90;;;;;;4967825;28;20093;-83
2020/12/06 11:20:38;;;;;;;62.47;33.65;;;4.20;94.00;;;;;;4921365;28;20085;-82
2020/12/06 11:23:36;;;;;;;74.03;42.78;;;4.30;94.00;;;;;;4921800;28;20035;-82
2020/12/06 11:26:02;;;;;;;74.90;38.03;;;4.40;94.60;;;;;;4950875;28;20469;-83
2020/12/06 11:28:28;;;;;;;67.80;37.70;;;4.50;94.60;;;;;;4948922;28;20045;-82
2020/12/06 11:30:53;;;;;;;63.25;34.88;;;4.50;94.60;;;;;;4970387;28;20375;-82
2020/12/06 11:33:19;;;;;;;65.72;36.22;;;4.60;94.70;;;;;;4947554;28;20058;-82
2020/12/06 11:35:45;;;;;;;65.00;35.08;;;4.60;94.70;;;;;;4968455;28;20041;-83
2020/12/06 11:38:11;;;;;;;67.60;36.67;;;4.60;94.20;;;;;;4932592;28;20488;-81
2020/12/06 11:40:36;;;;;;;60.05;34.53;;;4.70;94.10;;;;;;4939551;28;20023;-81
2020/12/06 11:43:02;;;;;;;65.63;35.75;;;4.70;94.30;;;;;;4953003;28;20142;-82
2020/12/06 11:45:27;;;;;;;65.82;35.97;;;4.70;94.30;;;;;;4936075;28;20034;-81
2020/12/06 11:47:53;;;;;;;71.78;40.88;;;4.70;94.30;;;;;;4971987;28;20586;-81
2020/12/06 11:50:19;;;;;;;70.57;37.55;;;4.80;94.60;;;;;;4962821;28;20057;-82
2020/12/06 11:52:44;;;;;;;71.65;38.40;;;4.90;94.70;;;;;;4930521;28;20104;-81
2020/12/06 11:55:11;;;;;;;71.50;38.05;;;4.90;94.70;;;;;;4932944;28;20117;-80
2020/12/06 11:57:36;;;;;;;72.85;36.83;;;4.90;94.70;;;;;;4938768;28;20093;-81
2020/12/06 12:00:04;;;;;;;73.00;39.50;;;5.00;94.60;;;;;;4951980;28;20042;-81
2020/12/06 12:02:29;;;;;;;70.05;40.03;;;5.00;94.70;;;;;;4961702;28;20029;-81
2020/12/06 12:04:55;;;;;;;66.97;36.28;;;5.10;94.80;;;;;;4963541;28;20030;-81
2020/12/06 12:07:20;;;;;;;62.00;34.25;;;5.10;94.80;;;;;;4947850;28;20101;-81
2020/12/06 12:09:46;;;;;;;70.60;37.45;;;5.10;94.80;;;;;;4938254;28;20514;-80
2020/12/06 12:12:11;;;;;;;67.38;34.90;;;5.10;94.80;;;;;;4934456;28;20546;-81
2020/12/06 12:14:37;;;;;;;65.60;37.03;;;5.10;94.70;;;;;;4931848;28;20054;-81
2020/12/06 12:17:03;;;;;;;68.18;36.10;;;5.10;94.80;;;;;;4916650;28;20027;-81
2020/12/06 12:19:28;;;;;;;67.38;36.45;;;5.10;94.80;;;;;;4931669;28;20062;-81
2020/12/06 12:21:53;;;;;;;71.55;38.60;;;5.10;94.80;;;;;;4959954;28;20908;-81
2020/12/06 12:24:19;;;;;;;68.97;35.25;;;5.10;94.80;;;;;;4949687;28;20088;-81
2020/12/06 12:26:44;;;;;;;65.78;35.28;;;5.10;94.80;;;;;;4949500;28;20383;-80
2020/12/06 12:29:10;;;;;;;62.40;34.75;;;5.10;95.10;;;;;;4939458;28;20033;-79
2020/12/06 12:31:35;;;;;;;63.20;37.03;;;5.10;94.70;;;;;;4930917;28;20027;-80
2020/12/06 12:34:01;;;;;;;60.45;35.75;;;5.10;94.80;;;;;;4948055;28;20235;-79
2020/12/06 12:36:27;;;;;;;56.97;32.13;;;5.00;94.80;;;;;;4962104;28;20035;-80